sensor_id;sensor_type;location;lat;lon;timestamp;pressure;altitude;pressure_sealevel;temperature;humidity
13209;BME280;6669;42.678;23.332;2022-08-01T00:01:29;94441.00;;;19.36;100.00
13209;BME280;6669;42.678;23.332;2022-08-01T00:03:58;94445.34;;;19.42;100.00
13209;BME280;6669;42.678;23.332;2022-08-01T00:06:27;94440.88;;;19.43;100.00
13209;BME280;6669;42.678;23.332;2022-08-01T00:08:55;94438.25;;;19.43;100.00
13209;BME280;6669;42.678;23.332;2022-08-01T00:11:23;94427.81;;;19.36;100.00
13209;BME280;6669;42.678;23.332;2022-08-01T00:13:52;94434.81;;;19.42;100.00
13209;BME280;6669;42.678;23.332;2022-08-01T00:16:20;94441.44;;;19.45;100.00
13209;BME280;6669;42.678;23.332;2022-08-01T00:18:50;94438.34;;;19.48;100.00
13209;BME280;6669;42.678;23.332;2022-08-01T00:21:18;94437.91;;;19.51;100.00
13209;BME280;6669;42.678;23.332;2022-08-01T00:23:47;94437.91;;;19.51;100.00
13209;BME280;6669;42.678;23.332;2022-08-01T00:26:15;94436.41;;;19.43;100.00
13209;BME280;6669;42.678;23.332;2022-08-01T00:28:43;94450.16;;;19.46;100.00
13209;BME280;6669;42.678;23.332;2022-08-01T00:31:11;94443.16;;;19.39;100.00
13209;BME280;6669;42.678;23.332;2022-08-01T00:33:39;94442.81;;;19.36;100.00
13209;BME280;6669;42.678;23.332;2022-08-01T00:36:08;94447.66;;;19.15;100.00
13209;BME280;6669;42.678;23.332;2022-08-01T00:38:37;94448.06;;;18.88;100.00
13209;BME280;6669;42.678;23.332;2022-08-01T00:41:05;94439.69;;;18.68;100.00
13209;BME280;6669;42.678;23.332;2022-08-01T00:43:33;94448.59;;;18.43;100.00
13209;BME280;6669;42.678;23.332;2022-08-01T00:46:01;94445.56;;;18.27;100.00
13209;BME280;6669;42.678;23.332;2022-08-01T00:48:29;94439.34;;;18.10;100.00
13209;BME280;6669;42.678;23.332;2022-08-01T00:50:57;94436.91;;;18.08;100.00
13209;BME280;6669;42.678;23.332;2022-08-01T00:53:26;94432.34;;;18.04;100.00
13209;BME280;6669;42.678;23.332;2022-08-01T00:56:14;94426.19;;;17.91;100.00
13209;BME280;6669;42.678;23.332;2022-08-01T00:58:43;94421.56;;;17.93;100.00
13209;BME280;6669;42.678;23.332;2022-08-01T01:01:11;94417.38;;;17.86;100.00
13209;BME280;6669;42.678;23.332;2022-08-01T01:03:39;94409.91;;;17.83;100.00
13209;BME280;6669;42.678;23.332;2022-08-01T01:06:41;94406.03;;;17.85;100.00
13209;BME280;6669;42.678;23.332;2022-08-01T01:09:21;94407.00;;;17.72;100.00
13209;BME280;6669;42.678;23.332;2022-08-01T01:12:05;94406.22;;;17.72;100.00
13209;BME280;6669;42.678;23.332;2022-08-01T01:14:38;94402.78;;;17.71;100.00
13209;BME280;6669;42.678;23.332;2022-08-01T01:17:12;94401.09;;;17.77;100.00
13209;BME280;6669;42.678;23.332;2022-08-01T01:19:57;94395.72;;;17.72;100.00
13209;BME280;6669;42.678;23.332;2022-08-01T01:22:41;94402.34;;;17.74;100.00
13209;BME280;6669;42.678;23.332;2022-08-01T01:25:31;94396.72;;;17.71;100.00
13209;BME280;6669;42.678;23.332;2022-08-01T01:28:08;94391.47;;;17.71;100.00
13209;BME280;6669;42.678;23.332;2022-08-01T01:30:41;94397.59;;;17.64;100.00
13209;BME280;6669;42.678;23.332;2022-08-01T01:33:11;94388.72;;;17.65;100.00
13209;BME280;6669;42.678;23.332;2022-08-01T01:35:46;94388.19;;;17.57;100.00
13209;BME280;6669;42.678;23.332;2022-08-01T01:38:18;94385.22;;;17.53;100.00
13209;BME280;6669;42.678;23.332;2022-08-01T01:40:49;94388.94;;;17.64;100.00
13209;BME280;6669;42.678;23.332;2022-08-01T01:43:18;94382.94;;;17.57;100.00
13209;BME280;6669;42.678;23.332;2022-08-01T01:45:56;94380.09;;;17.58;100.00
13209;BME280;6669;42.678;23.332;2022-08-01T01:48:24;94388.03;;;17.70;100.00
13209;BME280;6669;42.678;23.332;2022-08-01T01:50:54;94382.91;;;17.75;100.00
13209;BME280;6669;42.678;23.332;2022-08-01T01:53:24;94392.34;;;17.83;100.00
13209;BME280;6669;42.678;23.332;2022-08-01T01:55:53;94390.41;;;17.90;100.00
13209;BME280;6669;42.678;23.332;2022-08-01T01:58:24;94384.63;;;18.00;100.00
13209;BME280;6669;42.678;23.332;2022-08-01T02:00:56;94386.72;;;18.10;100.00
13209;BME280;6669;42.678;23.332;2022-08-01T02:03:29;94385.59;;;18.18;100.00
13209;BME280;6669;42.678;23.332;2022-08-01T02:05:59;94374.38;;;18.22;100.00
13209;BME280;6669;42.678;23.332;2022-08-01T02:08:29;94382.75;;;18.19;100.00
13209;BME280;6669;42.678;23.332;2022-08-01T02:10:58;94377.72;;;18.18;100.00
13209;BME280;6669;42.678;23.332;2022-08-01T02:13:53;94366.59;;;18.16;100.00
13209;BME280;6669;42.678;23.332;2022-08-01T02:16:25;94376.09;;;18.17;100.00
13209;BME280;6669;42.678;23.332;2022-08-01T02:18:54;94379.28;;;18.19;100.00
13209;BME280;6669;42.678;23.332;2022-08-01T02:21:26;94378.50;;;18.18;100.00
13209;BME280;6669;42.678;23.332;2022-08-01T02:23:59;94380.13;;;18.19;100.00
13209;BME280;6669;42.678;23.332;2022-08-01T02:26:32;94369.59;;;18.19;100.00
13209;BME280;6669;42.678;23.332;2022-08-01T02:29:06;94373.00;;;18.20;100.00
13209;BME280;6669;42.678;23.332;2022-08-01T02:31:39;94372.81;;;18.21;100.00
13209;BME280;6669;42.678;23.332;2022-08-01T02:34:13;94368.69;;;18.25;100.00
13209;BME280;6669;42.678;23.332;2022-08-01T02:36:45;94359.84;;;18.20;100.00
13209;BME280;6669;42.678;23.332;2022-08-01T02:39:16;94376.22;;;18.10;100.00
13209;BME280;6669;42.678;23.332;2022-08-01T02:41:47;94372.28;;;18.01;100.00
13209;BME280;6669;42.678;23.332;2022-08-01T02:44:23;94381.81;;;17.83;100.00
13209;BME280;6669;42.678;23.332;2022-08-01T02:46:57;94369.28;;;17.67;100.00
13209;BME280;6669;42.678;23.332;2022-08-01T02:49:31;94375.78;;;17.64;100.00
13209;BME280;6669;42.678;23.332;2022-08-01T02:52:01;94370.22;;;17.54;100.00
13209;BME280;6669;42.678;23.332;2022-08-01T02:54:32;94374.41;;;17.43;100.00
13209;BME280;6669;42.678;23.332;2022-08-01T02:57:02;94365.59;;;17.37;100.00
13209;BME280;6669;42.678;23.332;2022-08-01T02:59:33;94359.72;;;17.23;100.00
13209;BME280;6669;42.678;23.332;2022-08-01T03:02:08;94367.63;;;17.16;100.00
13209;BME280;6669;42.678;23.332;2022-08-01T03:04:39;94360.28;;;17.07;100.00
13209;BME280;6669;42.678;23.332;2022-08-01T03:07:10;94359.47;;;17.06;100.00
13209;BME280;6669;42.678;23.332;2022-08-01T03:09:40;94360.72;;;17.04;100.00
13209;BME280;6669;42.678;23.332;2022-08-01T03:12:13;94358.53;;;17.01;100.00
13209;BME280;6669;42.678;23.332;2022-08-01T03:14:43;94359.41;;;16.94;100.00
13209;BME280;6669;42.678;23.332;2022-08-01T03:17:15;94365.06;;;16.91;100.00
13209;BME280;6669;42.678;23.332;2022-08-01T03:19:45;94364.97;;;16.79;100.00
13209;BME280;6669;42.678;23.332;2022-08-01T03:22:15;94353.31;;;16.75;100.00
13209;BME280;6669;42.678;23.332;2022-08-01T03:24:47;94356.00;;;16.69;100.00
13209;BME280;6669;42.678;23.332;2022-08-01T03:27:18;94359.41;;;16.69;100.00
13209;BME280;6669;42.678;23.332;2022-08-01T03:29:47;94350.00;;;16.61;100.00
13209;BME280;6669;42.678;23.332;2022-08-01T03:32:18;94348.00;;;16.57;100.00
13209;BME280;6669;42.678;23.332;2022-08-01T03:34:47;94357.28;;;16.59;100.00
13209;BME280;6669;42.678;23.332;2022-08-01T03:37:21;94361.72;;;16.59;100.00
13209;BME280;6669;42.678;23.332;2022-08-01T03:39:55;94358.09;;;16.60;100.00
13209;BME280;6669;42.678;23.332;2022-08-01T03:42:31;94353.56;;;16.67;100.00
13209;BME280;6669;42.678;23.332;2022-08-01T03:45:04;94356.94;;;16.74;100.00
13209;BME280;6669;42.678;23.332;2022-08-01T03:47:42;94359.94;;;16.78;100.00
13209;BME280;6669;42.678;23.332;2022-08-01T03:50:13;94361.97;;;16.76;100.00
13209;BME280;6669;42.678;23.332;2022-08-01T03:52:45;94356.56;;;16.71;100.00
13209;BME280;6669;42.678;23.332;2022-08-01T03:55:15;94356.31;;;16.79;100.00
13209;BME280;6669;42.678;23.332;2022-08-01T03:57:45;94358.19;;;16.72;100.00
13209;BME280;6669;42.678;23.332;2022-08-01T04:00:15;94356.56;;;16.71;100.00
13209;BME280;6669;42.678;23.332;2022-08-01T04:02:47;94359.63;;;16.67;100.00
13209;BME280;6669;42.678;23.332;2022-08-01T04:05:15;94359.09;;;16.59;100.00
13209;BME280;6669;42.678;23.332;2022-08-01T04:07:46;94361.41;;;16.48;100.00
13209;BME280;6669;42.678;23.332;2022-08-01T04:10:14;94358.41;;;16.45;100.00
13209;BME280;6669;42.678;23.332;2022-08-01T04:12:42;94365.84;;;16.48;100.00
13209;BME280;6669;42.678;23.332;2022-08-01T04:15:10;94352.88;;;16.53;100.00
13209;BME280;6669;42.678;23.332;2022-08-01T04:17:38;94358.94;;;16.54;100.00
13209;BME280;6669;42.678;23.332;2022-08-01T04:20:09;94358.72;;;16.55;100.00
13209;BME280;6669;42.678;23.332;2022-08-01T04:22:38;94361.13;;;16.57;100.00
13209;BME280;6669;42.678;23.332;2022-08-01T04:25:11;94364.56;;;16.57;100.00
13209;BME280;6669;42.678;23.332;2022-08-01T04:27:46;94362.91;;;16.63;100.00
13209;BME280;6669;42.678;23.332;2022-08-01T04:30:19;94366.91;;;16.65;100.00
13209;BME280;6669;42.678;23.332;2022-08-01T04:32:48;94362.25;;;16.67;100.00
13209;BME280;6669;42.678;23.332;2022-08-01T04:35:19;94371.22;;;16.78;100.00
13209;BME280;6669;42.678;23.332;2022-08-01T04:38:10;94367.00;;;16.77;100.00
13209;BME280;6669;42.678;23.332;2022-08-01T04:40:41;94363.88;;;16.87;100.00
13209;BME280;6669;42.678;23.332;2022-08-01T04:43:09;94366.69;;;16.92;100.00
13209;BME280;6669;42.678;23.332;2022-08-01T04:45:40;94364.66;;;16.94;100.00
13209;BME280;6669;42.678;23.332;2022-08-01T04:48:10;94368.59;;;17.04;100.00
13209;BME280;6669;42.678;23.332;2022-08-01T04:50:41;94363.63;;;17.14;100.00
13209;BME280;6669;42.678;23.332;2022-08-01T04:53:13;94369.16;;;17.24;100.00
13209;BME280;6669;42.678;23.332;2022-08-01T04:55:44;94369.91;;;17.31;100.00
13209;BME280;6669;42.678;23.332;2022-08-01T04:58:14;94379.31;;;17.39;100.00
13209;BME280;6669;42.678;23.332;2022-08-01T05:00:44;94384.06;;;17.49;100.00
13209;BME280;6669;42.678;23.332;2022-08-01T05:03:13;94381.34;;;17.56;100.00
13209;BME280;6669;42.678;23.332;2022-08-01T05:05:43;94374.25;;;17.56;100.00
13209;BME280;6669;42.678;23.332;2022-08-01T05:08:11;94368.69;;;17.64;100.00
13209;BME280;6669;42.678;23.332;2022-08-01T05:10:39;94371.38;;;17.76;100.00
13209;BME280;6669;42.678;23.332;2022-08-01T05:13:07;94371.84;;;17.85;100.00
13209;BME280;6669;42.678;23.332;2022-08-01T05:15:35;94378.56;;;18.00;100.00
13209;BME280;6669;42.678;23.332;2022-08-01T05:18:04;94373.78;;;18.08;100.00
13209;BME280;6669;42.678;23.332;2022-08-01T05:20:34;94385.13;;;18.09;100.00
13209;BME280;6669;42.678;23.332;2022-08-01T05:23:03;94369.91;;;18.11;100.00
13209;BME280;6669;42.678;23.332;2022-08-01T05:25:36;94378.50;;;18.18;100.00
13209;BME280;6669;42.678;23.332;2022-08-01T05:28:23;94383.59;;;18.32;100.00
13209;BME280;6669;42.678;23.332;2022-08-01T05:30:51;94370.78;;;18.47;100.00
13209;BME280;6669;42.678;23.332;2022-08-01T05:33:21;94382.25;;;18.65;100.00
13209;BME280;6669;42.678;23.332;2022-08-01T05:35:49;94388.31;;;18.77;100.00
13209;BME280;6669;42.678;23.332;2022-08-01T05:38:19;94380.22;;;18.90;100.00
13209;BME280;6669;42.678;23.332;2022-08-01T05:40:47;94389.25;;;19.06;100.00
13209;BME280;6669;42.678;23.332;2022-08-01T05:43:15;94383.06;;;19.13;100.00
13209;BME280;6669;42.678;23.332;2022-08-01T05:45:43;94382.34;;;19.29;100.00
13209;BME280;6669;42.678;23.332;2022-08-01T05:48:12;94378.44;;;19.32;100.00
13209;BME280;6669;42.678;23.332;2022-08-01T05:50:40;94380.16;;;19.38;100.00
13209;BME280;6669;42.678;23.332;2022-08-01T05:53:08;94388.41;;;19.41;100.00
13209;BME280;6669;42.678;23.332;2022-08-01T05:55:38;94389.44;;;19.40;100.00
13209;BME280;6669;42.678;23.332;2022-08-01T05:58:06;94408.41;;;19.54;100.00
13209;BME280;6669;42.678;23.332;2022-08-01T06:00:38;94391.78;;;19.66;100.00
13209;BME280;6669;42.678;23.332;2022-08-01T06:03:06;94398.34;;;19.80;100.00
13209;BME280;6669;42.678;23.332;2022-08-01T06:05:34;94387.47;;;19.88;100.00
13209;BME280;6669;42.678;23.332;2022-08-01T06:08:03;94389.81;;;20.02;100.00
13209;BME280;6669;42.678;23.332;2022-08-01T06:10:31;94384.09;;;20.05;100.00
13209;BME280;6669;42.678;23.332;2022-08-01T06:13:00;94398.16;;;20.11;100.00
13209;BME280;6669;42.678;23.332;2022-08-01T06:15:29;94399.16;;;20.21;100.00
13209;BME280;6669;42.678;23.332;2022-08-01T06:17:58;94400.94;;;20.33;100.00
13209;BME280;6669;42.678;23.332;2022-08-01T06:20:26;94405.31;;;20.27;100.00
13209;BME280;6669;42.678;23.332;2022-08-01T06:22:54;94405.88;;;20.29;100.00
13209;BME280;6669;42.678;23.332;2022-08-01T06:25:25;94413.94;;;20.22;100.00
13209;BME280;6669;42.678;23.332;2022-08-01T06:27:53;94413.38;;;20.20;100.00
13209;BME280;6669;42.678;23.332;2022-08-01T06:30:23;94388.00;;;20.19;100.00
13209;BME280;6669;42.678;23.332;2022-08-01T06:32:51;94396.91;;;20.30;100.00
13209;BME280;6669;42.678;23.332;2022-08-01T06:35:19;94410.25;;;20.23;100.00
13209;BME280;6669;42.678;23.332;2022-08-01T06:37:47;94401.78;;;20.21;100.00
13209;BME280;6669;42.678;23.332;2022-08-01T06:40:15;94413.47;;;20.25;100.00
13209;BME280;6669;42.678;23.332;2022-08-01T06:42:44;94377.09;;;20.28;100.00
13209;BME280;6669;42.678;23.332;2022-08-01T06:45:13;94388.44;;;20.45;100.00
13209;BME280;6669;42.678;23.332;2022-08-01T06:47:44;94386.06;;;20.61;100.00
13209;BME280;6669;42.678;23.332;2022-08-01T06:50:19;94395.88;;;20.65;100.00
13209;BME280;6669;42.678;23.332;2022-08-01T06:52:47;94386.84;;;20.61;100.00
13209;BME280;6669;42.678;23.332;2022-08-01T06:55:15;94387.97;;;20.65;100.00
13209;BME280;6669;42.678;23.332;2022-08-01T06:57:47;94380.59;;;20.67;100.00
13209;BME280;6669;42.678;23.332;2022-08-01T07:00:17;94389.88;;;20.70;100.00
13209;BME280;6669;42.678;23.332;2022-08-01T07:02:50;94380.38;;;20.69;100.00
13209;BME280;6669;42.678;23.332;2022-08-01T07:05:19;94373.91;;;20.77;100.00
13209;BME280;6669;42.678;23.332;2022-08-01T07:07:47;94366.88;;;20.82;100.00
13209;BME280;6669;42.678;23.332;2022-08-01T07:10:16;94355.03;;;20.85;100.00
13209;BME280;6669;42.678;23.332;2022-08-01T07:12:44;94372.91;;;21.00;100.00
13209;BME280;6669;42.678;23.332;2022-08-01T07:15:13;94383.56;;;20.88;100.00
13209;BME280;6669;42.678;23.332;2022-08-01T07:17:42;94386.69;;;21.02;100.00
13209;BME280;6669;42.678;23.332;2022-08-01T07:20:12;94382.03;;;21.09;100.00
13209;BME280;6669;42.678;23.332;2022-08-01T07:22:42;94399.56;;;20.98;100.00
13209;BME280;6669;42.678;23.332;2022-08-01T07:25:13;94371.47;;;20.92;100.00
13209;BME280;6669;42.678;23.332;2022-08-01T07:27:42;94385.16;;;21.06;100.00
13209;BME280;6669;42.678;23.332;2022-08-01T07:30:10;94374.91;;;21.10;100.00
13209;BME280;6669;42.678;23.332;2022-08-01T07:32:39;94356.28;;;21.21;100.00
13209;BME280;6669;42.678;23.332;2022-08-01T07:35:08;94377.25;;;21.50;100.00
13209;BME280;6669;42.678;23.332;2022-08-01T07:37:38;94372.06;;;21.55;100.00
13209;BME280;6669;42.678;23.332;2022-08-01T07:40:15;94371.50;;;21.53;100.00
13209;BME280;6669;42.678;23.332;2022-08-01T07:42:44;94375.72;;;21.54;100.00
13209;BME280;6669;42.678;23.332;2022-08-01T07:45:13;94383.78;;;21.65;100.00
13209;BME280;6669;42.678;23.332;2022-08-01T07:47:42;94401.38;;;21.54;100.00
13209;BME280;6669;42.678;23.332;2022-08-01T07:50:10;94394.41;;;21.48;100.00
13209;BME280;6669;42.678;23.332;2022-08-01T07:52:41;94389.09;;;21.65;100.00
13209;BME280;6669;42.678;23.332;2022-08-01T07:55:11;94385.28;;;21.55;100.00
13209;BME280;6669;42.678;23.332;2022-08-01T07:57:42;94370.63;;;21.70;100.00
13209;BME280;6669;42.678;23.332;2022-08-01T08:00:11;94382.06;;;21.76;100.00
13209;BME280;6669;42.678;23.332;2022-08-01T08:02:40;94390.84;;;21.81;100.00
13209;BME280;6669;42.678;23.332;2022-08-01T08:05:08;94396.84;;;21.71;100.00
13209;BME280;6669;42.678;23.332;2022-08-01T08:07:37;94413.75;;;21.70;100.00
13209;BME280;6669;42.678;23.332;2022-08-01T08:10:08;94397.31;;;21.68;100.00
13209;BME280;6669;42.678;23.332;2022-08-01T08:12:36;94395.88;;;21.78;100.00
13209;BME280;6669;42.678;23.332;2022-08-01T08:15:05;94397.53;;;21.89;100.00
13209;BME280;6669;42.678;23.332;2022-08-01T08:17:33;94386.75;;;21.91;100.00
13209;BME280;6669;42.678;23.332;2022-08-01T08:20:03;94376.69;;;21.93;100.00
13209;BME280;6669;42.678;23.332;2022-08-01T08:22:35;94382.03;;;21.98;100.00
13209;BME280;6669;42.678;23.332;2022-08-01T08:25:06;94384.69;;;21.98;100.00
13209;BME280;6669;42.678;23.332;2022-08-01T08:27:35;94373.63;;;21.79;100.00
13209;BME280;6669;42.678;23.332;2022-08-01T08:30:05;94404.91;;;21.82;100.00
13209;BME280;6669;42.678;23.332;2022-08-01T08:32:34;94372.09;;;21.83;100.00
13209;BME280;6669;42.678;23.332;2022-08-01T08:35:04;94379.38;;;21.98;100.00
13209;BME280;6669;42.678;23.332;2022-08-01T08:37:33;94365.06;;;22.21;100.00
13209;BME280;6669;42.678;23.332;2022-08-01T08:40:10;94363.22;;;22.21;100.00
13209;BME280;6669;42.678;23.332;2022-08-01T08:42:40;94359.09;;;22.36;100.00
13209;BME280;6669;42.678;23.332;2022-08-01T08:45:10;94366.25;;;22.35;95.66
13209;BME280;6669;42.678;23.332;2022-08-01T08:47:39;94382.19;;;22.41;95.83
13209;BME280;6669;42.678;23.332;2022-08-01T08:50:10;94367.66;;;22.43;93.53
13209;BME280;6669;42.678;23.332;2022-08-01T08:52:39;94367.66;;;22.43;91.87
13209;BME280;6669;42.678;23.332;2022-08-01T08:55:10;94365.59;;;22.50;93.43
13209;BME280;6669;42.678;23.332;2022-08-01T08:57:42;94358.81;;;22.65;95.20
13209;BME280;6669;42.678;23.332;2022-08-01T09:00:13;94356.88;;;22.93;96.80
13209;BME280;6669;42.678;23.332;2022-08-01T09:02:44;94361.16;;;22.99;88.41
13209;BME280;6669;42.678;23.332;2022-08-01T09:05:13;94355.25;;;22.86;88.48
13209;BME280;6669;42.678;23.332;2022-08-01T09:07:45;94350.72;;;22.87;89.45
13209;BME280;6669;42.678;23.332;2022-08-01T09:10:15;94372.75;;;22.88;89.31
13209;BME280;6669;42.678;23.332;2022-08-01T09:13:05;94371.47;;;22.95;87.50
13209;BME280;6669;42.678;23.332;2022-08-01T09:15:44;94364.38;;;23.06;82.04
13209;BME280;6669;42.678;23.332;2022-08-01T09:18:30;94362.97;;;22.93;82.33
13209;BME280;6669;42.678;23.332;2022-08-01T09:21:08;94376.75;;;22.90;82.47
13209;BME280;6669;42.678;23.332;2022-08-01T09:23:39;94353.63;;;22.80;85.08
13209;BME280;6669;42.678;23.332;2022-08-01T09:26:28;94363.34;;;23.12;79.27
13209;BME280;6669;42.678;23.332;2022-08-01T09:29:02;94366.16;;;22.95;76.78
13209;BME280;6669;42.678;23.332;2022-08-01T09:31:39;94343.63;;;22.93;78.94
13209;BME280;6669;42.678;23.332;2022-08-01T09:34:13;94345.03;;;23.06;77.92
13209;BME280;6669;42.678;23.332;2022-08-01T09:36:47;94339.88;;;23.31;80.30
13209;BME280;6669;42.678;23.332;2022-08-01T09:39:21;94349.28;;;23.65;81.50
13209;BME280;6669;42.678;23.332;2022-08-01T09:41:51;94347.44;;;23.71;76.72
13209;BME280;6669;42.678;23.332;2022-08-01T09:44:37;94352.25;;;23.84;77.10
13209;BME280;6669;42.678;23.332;2022-08-01T09:47:10;94355.66;;;23.69;76.17
13209;BME280;6669;42.678;23.332;2022-08-01T09:49:41;94362.03;;;23.68;78.19
13209;BME280;6669;42.678;23.332;2022-08-01T09:52:20;94385.78;;;23.37;79.54
13209;BME280;6669;42.678;23.332;2022-08-01T09:54:55;94338.59;;;23.44;82.95
13209;BME280;6669;42.678;23.332;2022-08-01T09:57:26;94334.91;;;23.50;85.69
13209;BME280;6669;42.678;23.332;2022-08-01T09:59:55;94346.81;;;23.48;87.71
13209;BME280;6669;42.678;23.332;2022-08-01T10:02:29;94349.78;;;23.57;84.83
13209;BME280;6669;42.678;23.332;2022-08-01T10:04:57;94343.41;;;23.53;81.02
13209;BME280;6669;42.678;23.332;2022-08-01T10:07:34;94371.03;;;23.67;78.60
13209;BME280;6669;42.678;23.332;2022-08-01T10:10:10;94359.34;;;23.58;75.69
13209;BME280;6669;42.678;23.332;2022-08-01T10:12:42;94329.38;;;23.62;82.21
13209;BME280;6669;42.678;23.332;2022-08-01T10:15:15;94334.75;;;23.83;84.07
13209;BME280;6669;42.678;23.332;2022-08-01T10:17:50;94336.34;;;23.89;76.12
13209;BME280;6669;42.678;23.332;2022-08-01T10:20:25;94335.56;;;23.99;75.19
13209;BME280;6669;42.678;23.332;2022-08-01T10:22:58;94333.47;;;23.91;74.97
13209;BME280;6669;42.678;23.332;2022-08-01T10:25:35;94345.06;;;23.79;75.00
13209;BME280;6669;42.678;23.332;2022-08-01T10:28:14;94332.69;;;23.95;79.52
13209;BME280;6669;42.678;23.332;2022-08-01T10:30:47;94325.19;;;23.87;79.32
13209;BME280;6669;42.678;23.332;2022-08-01T10:33:16;94327.03;;;23.81;81.18
13209;BME280;6669;42.678;23.332;2022-08-01T10:36:05;94313.28;;;24.10;82.28
13209;BME280;6669;42.678;23.332;2022-08-01T10:38:34;94304.81;;;24.39;81.37
13209;BME280;6669;42.678;23.332;2022-08-01T10:41:04;94315.44;;;24.39;81.73
13209;BME280;6669;42.678;23.332;2022-08-01T10:43:36;94297.34;;;24.21;79.64
13209;BME280;6669;42.678;23.332;2022-08-01T10:46:04;94316.22;;;24.40;80.32
13209;BME280;6669;42.678;23.332;2022-08-01T10:48:41;94313.31;;;24.41;79.82
13209;BME280;6669;42.678;23.332;2022-08-01T10:51:11;94317.84;;;24.67;76.76
13209;BME280;6669;42.678;23.332;2022-08-01T10:53:50;94321.56;;;24.71;74.27
13209;BME280;6669;42.678;23.332;2022-08-01T10:56:20;94309.00;;;24.92;72.49
13209;BME280;6669;42.678;23.332;2022-08-01T10:59:01;94290.31;;;25.18;70.61
13209;BME280;6669;42.678;23.332;2022-08-01T11:01:32;94315.25;;;25.32;72.43
13209;BME280;6669;42.678;23.332;2022-08-01T11:04:06;94309.97;;;25.27;70.04
13209;BME280;6669;42.678;23.332;2022-08-01T11:06:54;94317.13;;;25.92;72.73
13209;BME280;6669;42.678;23.332;2022-08-01T11:09:40;94307.00;;;25.94;69.31
13209;BME280;6669;42.678;23.332;2022-08-01T11:12:17;94322.97;;;25.34;71.55
13209;BME280;6669;42.678;23.332;2022-08-01T11:15:20;94298.75;;;25.45;69.70
13209;BME280;6669;42.678;23.332;2022-08-01T11:17:59;94294.59;;;26.19;69.82
13209;BME280;6669;42.678;23.332;2022-08-01T11:20:30;94310.06;;;26.11;66.05
13209;BME280;6669;42.678;23.332;2022-08-01T11:23:15;94309.09;;;25.97;66.48
13209;BME280;6669;42.678;23.332;2022-08-01T11:26:09;94300.97;;;26.18;66.71
13209;BME280;6669;42.678;23.332;2022-08-01T11:28:40;94298.47;;;26.32;67.48
13209;BME280;6669;42.678;23.332;2022-08-01T11:31:31;94289.03;;;26.44;66.20
13209;BME280;6669;42.678;23.332;2022-08-01T11:34:03;94275.19;;;26.77;67.36
13209;BME280;6669;42.678;23.332;2022-08-01T11:36:31;94285.78;;;26.82;65.00
13209;BME280;6669;42.678;23.332;2022-08-01T11:39:19;94282.13;;;27.02;65.60
13209;BME280;6669;42.678;23.332;2022-08-01T11:41:48;94279.38;;;27.32;65.28
13209;BME280;6669;42.678;23.332;2022-08-01T11:44:21;94284.25;;;27.24;65.19
13209;BME280;6669;42.678;23.332;2022-08-01T11:46:58;94284.91;;;27.16;64.09
13209;BME280;6669;42.678;23.332;2022-08-01T11:49:54;94290.13;;;27.02;65.08
13209;BME280;6669;42.678;23.332;2022-08-01T11:52:26;94286.94;;;27.00;65.48
13209;BME280;6669;42.678;23.332;2022-08-01T11:54:55;94291.56;;;26.60;64.62
13209;BME280;6669;42.678;23.332;2022-08-01T11:57:25;94286.69;;;26.67;66.52
13209;BME280;6669;42.678;23.332;2022-08-01T12:00:03;94306.66;;;26.99;65.07
13209;BME280;6669;42.678;23.332;2022-08-01T12:02:35;94303.66;;;26.82;64.03
13209;BME280;6669;42.678;23.332;2022-08-01T12:05:06;94281.59;;;26.71;65.75
13209;BME280;6669;42.678;23.332;2022-08-01T12:07:39;94280.13;;;27.56;65.18
13209;BME280;6669;42.678;23.332;2022-08-01T12:10:10;94269.88;;;27.45;62.60
13209;BME280;6669;42.678;23.332;2022-08-01T12:12:44;94275.78;;;26.93;64.69
13209;BME280;6669;42.678;23.332;2022-08-01T12:15:13;94273.94;;;26.64;65.86
13209;BME280;6669;42.678;23.332;2022-08-01T12:17:44;94268.78;;;27.02;65.57
13209;BME280;6669;42.678;23.332;2022-08-01T12:20:28;94273.22;;;27.31;67.70
13209;BME280;6669;42.678;23.332;2022-08-01T12:22:59;94286.63;;;27.26;64.37
13209;BME280;6669;42.678;23.332;2022-08-01T12:25:27;94280.56;;;27.20;64.25
13209;BME280;6669;42.678;23.332;2022-08-01T12:28:00;94294.94;;;27.68;62.13
13209;BME280;6669;42.678;23.332;2022-08-01T12:30:29;94286.56;;;27.55;60.31
13209;BME280;6669;42.678;23.332;2022-08-01T12:33:04;94274.94;;;27.84;62.31
13209;BME280;6669;42.678;23.332;2022-08-01T12:35:33;94265.28;;;28.41;62.25
13209;BME280;6669;42.678;23.332;2022-08-01T12:38:03;94293.44;;;28.52;59.54
13209;BME280;6669;42.678;23.332;2022-08-01T12:40:33;94268.59;;;28.51;60.10
13209;BME280;6669;42.678;23.332;2022-08-01T12:43:02;94291.56;;;28.52;59.19
13209;BME280;6669;42.678;23.332;2022-08-01T12:45:37;94283.47;;;27.86;59.24
13209;BME280;6669;42.678;23.332;2022-08-01T12:48:21;94276.25;;;27.87;61.30
13209;BME280;6669;42.678;23.332;2022-08-01T12:50:49;94277.56;;;28.75;61.64
13209;BME280;6669;42.678;23.332;2022-08-01T12:53:19;94277.25;;;28.43;59.34
13209;BME280;6669;42.678;23.332;2022-08-01T12:55:50;94271.56;;;27.98;59.76
13209;BME280;6669;42.678;23.332;2022-08-01T12:58:30;94271.13;;;28.10;59.44
13209;BME280;6669;42.678;23.332;2022-08-01T13:01:03;94267.84;;;28.13;59.35
13209;BME280;6669;42.678;23.332;2022-08-01T13:03:33;94269.81;;;27.88;59.75
13209;BME280;6669;42.678;23.332;2022-08-01T13:06:10;94257.91;;;28.18;60.06
13209;BME280;6669;42.678;23.332;2022-08-01T13:08:39;94260.16;;;28.11;59.46
13209;BME280;6669;42.678;23.332;2022-08-01T13:11:08;94258.94;;;28.03;59.74
13209;BME280;6669;42.678;23.332;2022-08-01T13:13:41;94257.84;;;28.37;59.82
13209;BME280;6669;42.678;23.332;2022-08-01T13:16:10;94257.59;;;28.20;59.85
13209;BME280;6669;42.678;23.332;2022-08-01T13:18:53;94266.56;;;28.43;61.01